Time;durP1;ratioP1;P1;durP2;ratioP2;P2;SDS_P1;SDS_P2;PMS_P1;PMS_P2;Temp;Humidity;BMP_temperature;BMP_pressure;BME280_temperature;BME280_humidity;BME280_pressure;Samples;Min_cycle;Max_cycle;Signal;HPM_P1;HPM_P2
2024/01/03 00:01:36;;;;;;;9.48;1.95;;;;;;;12.57;61.17;98536.78;3609843;39;20059;-62
2024/01/03 00:04:02;;;;;;;9.43;2.00;;;;;;;12.43;61.20;98507.75;3609615;39;20061;-63
2024/01/03 00:06:33;;;;;;;10.25;2.50;;;;;;;12.58;61.48;98541.16;3607809;39;20091;-63
2024/01/03 00:09:00;;;;;;;7.95;1.92;;;;;;;12.58;61.53;98551.94;3607991;39;20388;-63
2024/01/03 00:11:30;;;;;;;10.93;2.30;;;;;;;12.54;61.90;98545.19;3607925;39;20055;-63
2024/01/03 00:14:27;;;;;;;13.75;2.80;;;;;;;12.51;61.84;98556.31;3607554;39;20401;-63
2024/01/03 00:16:59;;;;;;;13.57;2.60;;;;;;;12.47;62.87;98565.72;3607277;39;20042;-63
2024/01/03 00:19:25;;;;;;;7.90;2.35;;;;;;;12.42;63.01;98551.88;3607560;39;20061;-63
2024/01/03 00:21:51;;;;;;;10.98;2.20;;;;;;;12.37;63.93;98565.00;3608852;39;20059;-64
2024/01/03 00:24:19;;;;;;;12.00;2.65;;;;;;;12.35;64.41;98561.63;3597142;39;20055;-63
2024/01/03 00:26:45;;;;;;;9.98;2.22;;;;;;;12.25;64.46;98562.59;3611289;39;20099;-63
2024/01/03 00:29:53;;;;;;;15.02;3.03;;;;;;;12.22;65.23;98595.25;3607100;39;20360;-63
2024/01/03 00:32:22;;;;;;;11.05;2.60;;;;;;;12.20;65.33;98591.00;3607498;39;20144;-63
2024/01/03 00:34:49;;;;;;;12.27;3.05;;;;;;;12.18;65.97;98595.72;3607795;39;20417;-63
2024/01/03 00:37:27;;;;;;;12.45;2.70;;;;;;;12.20;66.40;98591.84;3606901;39;20054;-63
2024/01/03 00:39:56;;;;;;;13.52;3.00;;;;;;;12.18;67.71;98603.78;3598989;39;20047;-63
2024/01/03 00:42:22;;;;;;;17.35;3.72;;;;;;;12.19;68.61;98603.66;3607412;39;20049;-63
2024/01/03 00:44:48;;;;;;;19.35;3.50;;;;;;;12.17;69.00;98608.34;3608712;39;20103;-63
2024/01/03 00:47:15;;;;;;;13.35;3.30;;;;;;;12.19;69.56;98600.94;3609997;39;21386;-63
2024/01/03 00:49:41;;;;;;;14.73;3.38;;;;;;;12.17;70.20;98619.09;3607835;39;20090;-63
2024/01/03 00:52:08;;;;;;;16.58;3.88;;;;;;;12.17;70.99;98615.56;3610053;39;20124;-63
2024/01/03 00:54:35;;;;;;;19.50;3.40;;;;;;;12.13;72.24;98608.81;3606976;39;20363;-63
2024/01/03 00:57:02;;;;;;;19.05;3.55;;;;;;;12.09;72.66;98616.38;3610394;39;20053;-63
2024/01/03 00:59:28;;;;;;;20.70;3.97;;;;;;;12.04;73.36;98619.53;3606929;39;20075;-63
2024/01/03 01:01:56;;;;;;;21.25;4.25;;;;;;;11.99;73.52;98621.03;3607879;39;20301;-62
2024/01/03 01:04:22;;;;;;;16.63;4.00;;;;;;;11.95;73.26;98606.19;3608719;39;20408;-65
2024/01/03 01:06:47;;;;;;;13.20;3.38;;;;;;;11.96;73.68;98610.59;3607056;39;20047;-64
2024/01/03 01:09:13;;;;;;;14.18;3.22;;;;;;;11.97;73.89;98617.66;3605779;39;20442;-65
2024/01/03 01:11:39;;;;;;;20.88;4.05;;;;;;;11.94;73.58;98628.72;3607104;39;20055;-65
2024/01/03 01:14:04;;;;;;;14.60;3.25;;;;;;;11.97;73.71;98626.56;3606709;39;20051;-64
2024/01/03 01:16:30;;;;;;;16.60;3.83;;;;;;;11.97;73.75;98620.34;3606386;39;20329;-64
2024/01/03 01:18:55;;;;;;;21.17;4.07;;;;;;;11.98;73.35;98632.78;3606309;39;20370;-64
2024/01/03 01:21:21;;;;;;;17.25;3.85;;;;;;;11.98;74.00;98640.88;3605957;39;20065;-64
2024/01/03 01:23:47;;;;;;;14.55;3.38;;;;;;;11.95;75.03;98641.19;3610025;39;20435;-64
2024/01/03 01:26:12;;;;;;;16.58;3.70;;;;;;;11.89;75.83;98648.03;3605970;39;20064;-64
2024/01/03 01:28:38;;;;;;;16.05;3.70;;;;;;;11.85;76.56;98636.72;3610099;39;20051;-64
2024/01/03 01:31:04;;;;;;;16.35;3.67;;;;;;;11.82;76.89;98644.25;3606393;39;20317;-64
2024/01/03 01:33:30;;;;;;;17.55;3.65;;;;;;;11.78;77.25;98632.97;3605748;39;20054;-64
2024/01/03 01:35:55;;;;;;;19.85;4.30;;;;;;;11.75;77.41;98635.97;3606772;39;20425;-64
2024/01/03 01:38:21;;;;;;;19.13;3.40;;;;;;;11.78;77.02;98650.97;3606823;39;20059;-64
2024/01/03 01:40:49;;;;;;;16.70;3.58;;;;;;;11.77;76.85;98633.13;3606919;39;20383;-65
2024/01/03 01:43:15;;;;;;;24.20;4.30;;;;;;;11.71;76.32;98629.22;3607064;39;20070;-64
2024/01/03 01:45:41;;;;;;;17.95;3.70;;;;;;;11.59;76.24;98600.84;3607744;39;20055;-65
2024/01/03 01:48:09;;;;;;;16.75;3.50;;;;;;;11.87;75.53;98639.28;3605562;39;20055;-64
2024/01/03 01:50:39;;;;;;;15.88;3.95;;;;;;;11.96;74.34;98642.91;3608507;39;20047;-64
2024/01/03 01:53:07;;;;;;;18.33;3.78;;;;;;;11.97;73.99;98663.41;3606493;39;20054;-65
2024/01/03 01:55:39;;;;;;;15.48;3.53;;;;;;;12.00;73.39;98660.41;3609864;39;20057;-65
2024/01/03 01:58:08;;;;;;;17.20;3.70;;;;;;;12.05;72.42;98663.47;3606150;39;20120;-64
2024/01/03 02:00:36;;;;;;;16.77;3.70;;;;;;;12.11;72.01;98667.38;3606941;39;20061;-64
2024/01/03 02:03:04;;;;;;;15.50;3.28;;;;;;;12.14;72.08;98670.59;3606866;39;20057;-64
2024/01/03 02:05:30;;;;;;;19.65;3.85;;;;;;;12.12;73.70;98672.63;3598059;39;20074;-65
2024/01/03 02:07:58;;;;;;;17.45;3.53;;;;;;;12.14;74.97;98685.91;3607008;39;20048;-65
2024/01/03 02:10:23;;;;;;;17.27;3.38;;;;;;;12.11;75.38;98692.47;3611027;39;20123;-64
2024/01/03 02:12:49;;;;;;;14.48;3.42;;;;;;;12.09;76.14;98702.56;3607411;39;20067;-65
2024/01/03 02:15:15;;;;;;;18.10;3.40;;;;;;;12.05;76.68;98699.34;3608193;39;20055;-64
2024/01/03 02:17:42;;;;;;;14.90;3.90;;;;;;;11.69;77.82;98641.97;3609165;39;20055;-64
2024/01/03 02:20:08;;;;;;;22.13;3.92;;;;;;;11.95;79.04;98695.88;3612137;39;20047;-65
2024/01/03 02:22:33;;;;;;;17.58;4.28;;;;;;;11.90;79.32;98697.38;3612315;39;20054;-64
2024/01/03 02:24:59;;;;;;;22.52;4.40;;;;;;;11.83;80.33;98697.94;3609204;39;20067;-64
2024/01/03 02:27:25;;;;;;;19.52;4.15;;;;;;;11.80;80.34;98702.81;3609645;39;20044;-64
2024/01/03 02:29:51;;;;;;;17.40;3.70;;;;;;;11.73;80.32;98702.53;3610989;39;20055;-65
2024/01/03 02:32:16;;;;;;;20.80;3.83;;;;;;;11.72;80.57;98698.19;3609212;39;20075;-64
2024/01/03 02:34:42;;;;;;;16.70;3.35;;;;;;;11.69;80.32;98700.34;3608108;39;20311;-64
2024/01/03 02:37:10;;;;;;;17.08;3.70;;;;;;;11.57;80.38;98691.63;3607296;39;20062;-64
2024/01/03 02:39:36;;;;;;;15.00;3.72;;;;;;;11.63;80.72;98707.16;3610409;39;20132;-64
2024/01/03 02:42:02;;;;;;;15.63;3.47;;;;;;;11.59;80.93;98708.47;3599564;39;20331;-64
2024/01/03 02:44:27;;;;;;;14.82;3.30;;;;;;;11.50;81.16;98707.56;3608037;39;20051;-64
2024/01/03 02:46:54;;;;;;;19.50;4.07;;;;;;;11.23;80.75;98673.50;3609306;39;20265;-64
2024/01/03 02:49:20;;;;;;;17.67;3.40;;;;;;;11.42;80.59;98707.47;3607134;39;20060;-64
2024/01/03 02:51:46;;;;;;;17.92;3.83;;;;;;;11.36;81.17;98721.53;3612088;39;20050;-64
2024/01/03 02:54:11;;;;;;;15.30;3.42;;;;;;;11.35;81.85;98707.25;3610684;39;20247;-65
2024/01/03 02:56:39;;;;;;;21.02;3.80;;;;;;;11.32;82.26;98717.44;3615774;39;20374;-64
2024/01/03 02:59:04;;;;;;;15.07;3.65;;;;;;;11.29;82.51;98706.97;3613838;39;20082;-64
2024/01/03 03:01:30;;;;;;;15.70;3.35;;;;;;;10.65;82.46;98612.00;3614289;39;20050;-64
2024/01/03 03:03:56;;;;;;;20.00;3.70;;;;;;;11.28;82.87;98713.38;3609700;39;20057;-64
2024/01/03 03:06:21;;;;;;;15.45;3.35;;;;;;;11.31;82.97;98716.59;3619793;39;20058;-64
2024/01/03 03:08:47;;;;;;;12.82;2.97;;;;;;;11.33;82.70;98725.38;3612063;39;20062;-64
2024/01/03 03:11:12;;;;;;;19.73;4.15;;;;;;;11.34;83.33;98712.75;3606223;39;20321;-64
2024/01/03 03:13:38;;;;;;;17.50;3.72;;;;;;;11.32;83.40;98715.63;3605788;39;20062;-64
2024/01/03 03:16:07;;;;;;;19.63;3.65;;;;;;;11.34;83.41;98707.38;3608147;39;20058;-64
2024/01/03 03:18:33;;;;;;;20.65;4.18;;;;;;;11.32;83.52;98720.13;3605907;39;20389;-64
2024/01/03 03:21:00;;;;;;;20.67;3.90;;;;;;;11.33;83.45;98709.22;3607187;39;20048;-64
2024/01/03 03:23:26;;;;;;;20.75;3.92;;;;;;;11.33;83.30;98720.00;3605845;39;20431;-64
2024/01/03 03:25:52;;;;;;;16.20;3.35;;;;;;;11.38;83.35;98728.47;3607150;39;20054;-64
2024/01/03 03:28:18;;;;;;;14.02;3.03;;;;;;;11.37;83.84;98724.06;3611854;39;20082;-64
2024/01/03 03:30:43;;;;;;;21.90;3.83;;;;;;;11.26;84.90;98704.59;3605880;39;20048;-66
2024/01/03 03:33:09;;;;;;;16.10;3.75;;;;;;;11.28;85.77;98721.44;3606766;39;20055;-63
2024/01/03 03:35:35;;;;;;;20.80;3.80;;;;;;;11.28;86.01;98722.28;3607908;39;20285;-65
2024/01/03 03:38:00;;;;;;;18.98;3.97;;;;;;;11.29;86.09;98732.06;3606172;39;20047;-63
2024/01/03 03:40:26;;;;;;;19.55;4.15;;;;;;;11.26;86.22;98726.97;3608845;39;20055;-63
2024/01/03 03:42:52;;;;;;;18.45;4.15;;;;;;;11.22;86.53;98719.34;3608777;39;20085;-62
2024/01/03 03:45:17;;;;;;;20.95;4.30;;;;;;;11.21;86.94;98729.28;3609387;39;20073;-64
2024/01/03 03:47:43;;;;;;;22.13;3.92;;;;;;;11.17;87.62;98724.34;3610153;39;20050;-63
2024/01/03 03:50:09;;;;;;;19.60;3.30;;;;;;;11.12;87.81;98719.41;3606976;39;20319;-63
2024/01/03 03:52:35;;;;;;;18.23;4.20;;;;;;;11.07;87.78;98716.34;3608067;39;20079;-63
2024/01/03 03:55:01;;;;;;;17.90;3.70;;;;;;;11.02;88.70;98711.41;3608832;39;20137;-63
2024/01/03 03:57:26;;;;;;;17.30;3.42;;;;;;;11.07;88.28;98713.66;3608633;39;20047;-63
2024/01/03 03:59:52;;;;;;;17.70;3.72;;;;;;;11.06;88.14;98714.63;3608135;39;20069;-63
2024/01/03 04:02:18;;;;;;;23.70;4.00;;;;;;;11.04;87.88;98727.41;3608151;39;20094;-63
2024/01/03 04:04:43;;;;;;;17.50;3.55;;;;;;;11.07;87.75;98722.56;3609070;39;20410;-63
2024/01/03 04:07:09;;;;;;;16.20;3.35;;;;;;;11.05;87.03;98716.47;3609721;39;20155;-63
2024/01/03 04:09:35;;;;;;;18.05;3.50;;;;;;;11.00;87.01;98708.00;3608864;39;20059;-63
2024/01/03 04:12:01;;;;;;;12.80;2.85;;;;;;;11.10;86.31;98726.78;3610853;39;20051;-63
2024/01/03 04:14:26;;;;;;;10.88;2.80;;;;;;;11.12;85.71;98740.91;3606401;39;20094;-63
2024/01/03 04:16:52;;;;;;;15.60;2.90;;;;;;;11.11;85.44;98720.41;3608858;39;20548;-63
2024/01/03 04:19:17;;;;;;;12.48;2.97;;;;;;;11.18;84.89;98739.47;3609454;39;20050;-64
2024/01/03 04:21:43;;;;;;;9.70;2.45;;;;;;;11.15;85.69;98740.63;3608770;39;20056;-63
2024/01/03 04:24:09;;;;;;;14.30;3.03;;;;;;;11.11;85.94;98739.25;3607502;39;20051;-63
2024/01/03 04:26:34;;;;;;;11.45;2.83;;;;;;;11.07;85.74;98744.06;3611092;39;20059;-64
2024/01/03 04:29:00;;;;;;;10.05;2.58;;;;;;;11.04;86.27;98738.16;3607173;39;20050;-63
2024/01/03 04:31:25;;;;;;;12.20;3.05;;;;;;;11.01;87.00;98743.81;3608333;39;20139;-63
2024/01/03 04:33:51;;;;;;;14.27;2.67;;;;;;;10.68;87.35;98695.00;3606688;39;20093;-64
2024/01/03 04:36:17;;;;;;;12.15;2.72;;;;;;;10.95;87.21;98736.34;3608773;39;20054;-63
2024/01/03 04:38:42;;;;;;;10.30;2.97;;;;;;;10.93;86.96;98736.47;3608053;39;20395;-63
2024/01/03 04:41:08;;;;;;;8.07;2.65;;;;;;;10.97;86.55;98742.41;3609797;39;20043;-63
2024/01/03 04:43:34;;;;;;;11.80;2.58;;;;;;;10.97;85.53;98748.63;3608772;39;20065;-63
2024/01/03 04:46:00;;;;;;;7.82;1.65;;;;;;;10.97;85.56;98747.78;3607916;39;20058;-63
2024/01/03 04:48:26;;;;;;;9.10;2.10;;;;;;;10.99;84.36;98740.44;3608109;39;20055;-62
2024/01/03 04:50:51;;;;;;;9.18;2.20;;;;;;;11.00;83.64;98742.13;3608211;39;20350;-62
2024/01/03 04:53:17;;;;;;;7.95;1.80;;;;;;;11.06;83.42;98742.34;3606915;39;20363;-63
2024/01/03 04:55:43;;;;;;;10.23;2.10;;;;;;;11.06;83.54;98749.59;3607561;39;20082;-63
2024/01/03 04:58:08;;;;;;;13.90;2.63;;;;;;;10.89;83.15;98722.50;3608044;39;20043;-64
2024/01/03 05:00:36;;;;;;;6.78;2.60;;;;;;;11.08;82.79;98747.59;3607842;39;20059;-63
2024/01/03 05:03:02;;;;;;;8.50;2.00;;;;;;;11.05;83.23;98746.06;3608706;39;20406;-63
2024/01/03 05:05:27;;;;;;;7.50;1.67;;;;;;;11.08;83.32;98747.59;3606032;39;20549;-63
2024/01/03 05:07:54;;;;;;;9.50;2.03;;;;;;;11.04;83.20;98749.75;3611483;39;20050;-62
2024/01/03 05:10:20;;;;;;;6.47;1.80;;;;;;;11.05;83.89;98754.13;3608338;39;20042;-62
2024/01/03 05:12:46;;;;;;;8.95;2.30;;;;;;;11.02;84.59;98756.25;3606149;39;20058;-62
2024/01/03 05:15:12;;;;;;;7.70;1.60;;;;;;;10.98;84.73;98761.09;3608769;39;20059;-62
2024/01/03 05:17:37;;;;;;;9.98;1.70;;;;;;;10.95;84.81;98761.38;3606410;39;20346;-63
2024/01/03 05:20:04;;;;;;;4.97;1.63;;;;;;;10.93;85.09;98753.47;3608083;39;20050;-63
2024/01/03 05:22:31;;;;;;;5.13;1.13;;;;;;;10.89;85.80;98754.75;3607045;39;20063;-62
2024/01/03 05:24:56;;;;;;;6.07;1.77;;;;;;;10.80;87.00;98754.78;3606954;39;20124;-63
2024/01/03 05:27:23;;;;;;;4.88;1.45;;;;;;;10.75;87.21;98749.00;3606890;39;20051;-65
2024/01/03 05:29:48;;;;;;;6.80;1.95;;;;;;;10.66;88.85;98748.06;3606646;39;20055;-65
2024/01/03 05:32:15;;;;;;;7.43;2.05;;;;;;;10.66;89.56;98756.13;3606770;39;20051;-65
2024/01/03 05:34:40;;;;;;;8.52;1.80;;;;;;;10.58;89.64;98745.25;3607251;39;20063;-64
2024/01/03 05:37:06;;;;;;;7.85;1.90;;;;;;;10.60;90.91;98745.97;3607583;39;20066;-65
2024/01/03 05:39:32;;;;;;;5.25;1.65;;;;;;;10.55;91.88;98757.13;3608062;39;20393;-64
2024/01/03 05:41:57;;;;;;;8.27;1.92;;;;;;;10.54;91.47;98759.97;3608312;39;20050;-65
2024/01/03 05:44:23;;;;;;;6.88;1.50;;;;;;;10.50;92.45;98767.47;3606388;39;20380;-66
2024/01/03 05:46:48;;;;;;;7.78;1.52;;;;;;;10.44;91.98;98754.63;3606491;39;20047;-65
2024/01/03 05:49:14;;;;;;;8.30;2.00;;;;;;;10.35;93.32;98764.41;3607293;39;20054;-65
2024/01/03 05:51:40;;;;;;;5.00;1.80;;;;;;;10.32;94.04;98759.31;3608075;39;20321;-65
2024/01/03 05:54:05;;;;;;;8.82;1.70;;;;;;;10.31;93.95;98776.44;3609152;39;20114;-65
2024/01/03 05:56:31;;;;;;;8.25;2.08;;;;;;;10.26;94.19;98759.88;3607746;39;20075;-65
2024/01/03 05:58:57;;;;;;;9.77;1.70;;;;;;;10.23;95.65;98766.34;3609725;39;20047;-65
2024/01/03 06:01:22;;;;;;;8.45;2.17;;;;;;;10.20;95.86;98755.06;3608748;39;20074;-65
2024/01/03 06:03:49;;;;;;;7.00;1.98;;;;;;;10.19;96.28;98761.41;3608657;39;20058;-65
2024/01/03 06:06:16;;;;;;;9.27;1.88;;;;;;;10.11;97.04;98761.28;3608370;39;20404;-64
2024/01/03 06:08:42;;;;;;;12.00;2.38;;;;;;;10.11;97.16;98764.81;3610033;39;20075;-63
2024/01/03 06:11:10;;;;;;;10.07;2.13;;;;;;;10.09;97.56;98771.34;3608764;39;20043;-63
2024/01/03 06:13:36;;;;;;;7.28;1.98;;;;;;;10.10;98.59;98770.34;3607652;39;20380;-63
2024/01/03 06:16:02;;;;;;;5.85;1.60;;;;;;;10.07;97.83;98770.63;3610519;39;20043;-63
2024/01/03 06:18:28;;;;;;;11.65;2.03;;;;;;;10.04;98.48;98770.91;3597919;39;20047;-64
2024/01/03 06:20:53;;;;;;;6.35;1.73;;;;;;;10.04;98.85;98763.69;3607687;39;20066;-63
2024/01/03 06:23:19;;;;;;;6.72;2.13;;;;;;;10.00;98.45;98778.41;3610829;39;20051;-65
2024/01/03 06:25:44;;;;;;;10.13;2.25;;;;;;;9.99;98.87;98766.81;3607571;39;20061;-65
2024/01/03 06:28:10;;;;;;;7.88;1.42;;;;;;;9.94;99.24;98761.00;3599093;39;20054;-64
2024/01/03 06:30:36;;;;;;;7.78;1.90;;;;;;;9.92;99.31;98751.41;3607718;39;20306;-64
2024/01/03 06:33:01;;;;;;;8.57;1.65;;;;;;;9.90;99.16;98753.41;3610269;39;20050;-64
2024/01/03 06:35:27;;;;;;;7.85;1.92;;;;;;;9.88;99.11;98756.22;3608297;39;20383;-64
2024/01/03 06:37:52;;;;;;;6.28;1.67;;;;;;;9.87;99.29;98759.88;3609851;39;20533;-64
2024/01/03 06:40:18;;;;;;;5.70;1.73;;;;;;;9.86;100.00;98768.91;3608619;39;20043;-64
2024/01/03 06:42:44;;;;;;;4.75;1.40;;;;;;;9.91;99.36;98772.03;3609763;39;20051;-65
2024/01/03 06:45:09;;;;;;;4.28;1.55;;;;;;;9.85;99.71;98761.00;3608818;39;20395;-64
2024/01/03 06:47:35;;;;;;;4.80;1.20;;;;;;;9.68;98.96;98749.16;3607536;39;20057;-64
2024/01/03 06:50:00;;;;;;;4.18;1.00;;;;;;;9.77;98.74;98762.56;3610645;39;20390;-65
2024/01/03 06:52:26;;;;;;;6.68;1.30;;;;;;;9.76;98.44;98771.59;3613681;39;20051;-65
2024/01/03 06:54:51;;;;;;;5.15;0.90;;;;;;;9.71;99.35;98787.28;3608432;39;20389;-64
2024/01/03 06:57:17;;;;;;;4.38;0.95;;;;;;;9.59;98.54;98771.44;3607768;39;20130;-65
2024/01/03 06:59:42;;;;;;;4.47;1.17;;;;;;;9.64;98.82;98801.38;3607114;39;20051;-65
2024/01/03 07:02:08;;;;;;;2.33;1.05;;;;;;;9.60;99.14;98802.63;3608779;39;20095;-65
2024/01/03 07:04:34;;;;;;;3.35;0.98;;;;;;;9.62;98.62;98809.56;3609603;39;20363;-64
2024/01/03 07:07:00;;;;;;;3.60;0.82;;;;;;;9.45;98.55;98795.00;3608938;39;20063;-64
2024/01/03 07:09:26;;;;;;;2.40;0.90;;;;;;;9.40;98.79;98794.56;3608134;39;20375;-65
2024/01/03 07:11:51;;;;;;;1.85;0.50;;;;;;;9.45;98.20;98813.78;3608544;39;20047;-65
2024/01/03 07:14:17;;;;;;;1.95;0.60;;;;;;;9.39;96.79;98808.97;3597805;39;20391;-64
2024/01/03 07:16:42;;;;;;;1.55;0.60;;;;;;;9.29;96.15;98806.25;3607340;39;20384;-65
2024/01/03 07:19:08;;;;;;;1.98;0.60;;;;;;;9.23;95.69;98812.16;3608752;39;20059;-64
2024/01/03 07:21:34;;;;;;;1.58;0.40;;;;;;;9.16;96.00;98812.81;3608815;39;20063;-65
2024/01/03 07:23:59;;;;;;;3.38;0.47;;;;;;;9.10;96.23;98803.47;3610178;39;20094;-64
2024/01/03 07:26:25;;;;;;;2.08;0.50;;;;;;;9.11;96.67;98815.91;3609865;39;20066;-65
2024/01/03 07:28:51;;;;;;;1.92;0.60;;;;;;;9.13;96.62;98813.09;3609001;39;20043;-65
2024/01/03 07:31:17;;;;;;;1.75;0.55;;;;;;;9.16;97.13;98815.50;3609669;39;20089;-64
2024/01/03 07:33:42;;;;;;;3.47;0.80;;;;;;;9.14;98.35;98820.16;3613122;39;20383;-64
2024/01/03 07:36:08;;;;;;;3.90;0.80;;;;;;;9.16;99.31;98818.19;3608272;39;20070;-65
2024/01/03 07:38:34;;;;;;;3.13;0.63;;;;;;;9.20;98.82;98817.78;3611265;39;20074;-64
2024/01/03 07:41:00;;;;;;;1.73;0.80;;;;;;;9.19;98.97;98823.28;3609488;39;20093;-67
2024/01/03 07:43:29;;;;;;;2.53;0.80;;;;;;;9.09;99.50;98800.94;3610799;39;20051;-67
2024/01/03 07:45:57;;;;;;;2.72;0.77;;;;;;;9.20;99.51;98817.78;3610204;39;20087;-66
2024/01/03 07:48:23;;;;;;;1.38;0.75;;;;;;;9.23;99.42;98824.72;3608658;39;20074;-66
2024/01/03 07:50:50;;;;;;;2.70;1.00;;;;;;;9.22;99.93;98828.34;3611836;39;20051;-65
2024/01/03 07:53:15;;;;;;;3.00;1.10;;;;;;;9.20;100.00;98823.16;3610432;39;20104;-66
2024/01/03 07:55:41;;;;;;;4.28;1.20;;;;;;;9.26;100.00;98835.13;3610167;39;20065;-65
2024/01/03 07:58:06;;;;;;;6.32;1.60;;;;;;;9.31;100.00;98838.28;3602049;39;20315;-65
2024/01/03 08:00:32;;;;;;;4.38;1.50;;;;;;;9.32;100.00;98839.97;3607586;39;20057;-65
2024/01/03 08:02:57;;;;;;;4.95;1.75;;;;;;;9.34;99.99;98838.00;3608585;39;20039;-65
2024/01/03 08:05:23;;;;;;;4.70;1.60;;;;;;;9.38;100.00;98823.34;3609688;39;20098;-63
2024/01/03 08:07:49;;;;;;;5.50;1.55;;;;;;;9.41;99.66;98846.34;3610123;39;20423;-63
2024/01/03 08:10:16;;;;;;;5.28;1.55;;;;;;;9.45;99.77;98839.72;3610238;39;20108;-63
2024/01/03 08:12:41;;;;;;;7.75;1.73;;;;;;;9.42;99.71;98838.19;3609704;39;20090;-64
2024/01/03 08:15:08;;;;;;;8.23;1.65;;;;;;;9.45;98.68;98847.75;3610993;39;20407;-64
2024/01/03 08:17:34;;;;;;;7.15;1.52;;;;;;;9.45;99.30;98840.59;3610421;39;20073;-63
2024/01/03 08:20:00;;;;;;;4.55;1.30;;;;;;;9.33;99.05;98819.38;3610211;39;20051;-63
2024/01/03 08:22:25;;;;;;;8.45;1.95;;;;;;;9.48;98.82;98848.38;3609519;39;20308;-63
2024/01/03 08:24:51;;;;;;;8.25;1.50;;;;;;;9.51;98.84;98848.09;3609156;39;20051;-64
2024/01/03 08:27:19;;;;;;;8.57;2.00;;;;;;;9.54;99.08;98850.47;3598866;39;20098;-62
2024/01/03 08:29:45;;;;;;;8.20;2.08;;;;;;;9.51;98.77;98842.72;3608369;39;20291;-63
2024/01/03 08:32:11;;;;;;;11.13;1.90;;;;;;;9.56;98.83;98852.19;3610491;39;20416;-63
2024/01/03 08:34:37;;;;;;;8.73;2.13;;;;;;;9.59;98.46;98855.44;3607891;39;20069;-63
2024/01/03 08:37:03;;;;;;;11.90;2.00;;;;;;;9.58;98.75;98844.84;3610737;39;20070;-63
2024/01/03 08:39:28;;;;;;;10.38;1.70;;;;;;;9.64;97.97;98863.06;3598308;39;20039;-64
2024/01/03 08:41:54;;;;;;;11.32;2.40;;;;;;;9.67;98.64;98854.75;3607256;39;20047;-65
2024/01/03 08:44:20;;;;;;;9.02;2.08;;;;;;;9.72;97.86;98857.88;3608906;39;20069;-65
2024/01/03 08:46:46;;;;;;;10.55;2.25;;;;;;;9.73;98.00;98867.63;3606843;39;20067;-65
2024/01/03 08:49:13;;;;;;;8.10;2.05;;;;;;;9.68;97.90;98843.06;3610009;39;20108;-65
2024/01/03 08:51:39;;;;;;;8.85;2.45;;;;;;;9.61;97.52;98833.84;3608713;39;20419;-65
2024/01/03 08:54:05;;;;;;;13.38;2.88;;;;;;;9.82;96.85;98869.47;3612475;39;20297;-65
2024/01/03 08:56:31;;;;;;;10.77;2.45;;;;;;;9.85;97.42;98874.56;3608971;39;20043;-65
2024/01/03 08:58:57;;;;;;;11.13;2.78;;;;;;;9.93;97.35;98864.00;3609694;39;20051;-65
2024/01/03 09:01:24;;;;;;;15.80;2.47;;;;;;;10.03;96.58;98874.75;3608551;39;20617;-65
2024/01/03 09:03:50;;;;;;;14.05;2.25;;;;;;;10.07;96.22;98880.69;3609348;39;20070;-65
2024/01/03 09:06:22;;;;;;;13.73;2.95;;;;;;;10.13;95.98;98872.06;3609298;39;20097;-65
2024/01/03 09:08:50;;;;;;;19.98;3.17;;;;;;;10.18;95.58;98880.53;3611526;39;20050;-65
2024/01/03 09:11:19;;;;;;;17.52;3.33;;;;;;;10.25;94.63;98881.69;3612973;39;20268;-65
2024/01/03 09:13:49;;;;;;;16.30;3.40;;;;;;;10.32;94.55;98882.84;3605800;39;20059;-65
2024/01/03 09:16:19;;;;;;;17.17;3.22;;;;;;;10.36;93.73;98886.94;3611155;39;20054;-65
2024/01/03 09:18:46;;;;;;;19.00;3.47;;;;;;;10.37;93.87;98888.66;3607936;39;20048;-65
2024/01/03 09:21:12;;;;;;;15.63;3.00;;;;;;;10.27;93.68;98866.28;3602992;39;20092;-65
2024/01/03 09:23:38;;;;;;;15.25;3.63;;;;;;;10.48;92.98;98884.13;3610186;39;20075;-65
2024/01/03 09:26:05;;;;;;;12.40;2.70;;;;;;;10.59;92.66;98882.13;3607323;39;20431;-65
2024/01/03 09:28:31;;;;;;;20.92;3.45;;;;;;;10.57;92.16;98872.53;3610265;39;20046;-65
2024/01/03 09:30:56;;;;;;;12.98;2.78;;;;;;;10.85;91.74;98897.66;3610898;39;20065;-65
2024/01/03 09:33:23;;;;;;;14.45;2.83;;;;;;;10.87;90.65;98893.81;3608263;39;20061;-65
2024/01/03 09:35:49;;;;;;;16.90;3.20;;;;;;;10.99;89.31;98886.44;3608962;39;20090;-65
2024/01/03 09:38:15;;;;;;;10.85;2.72;;;;;;;11.01;88.90;98886.31;3610765;39;20338;-65
2024/01/03 09:40:41;;;;;;;18.55;3.20;;;;;;;11.01;87.93;98903.28;3610334;39;20051;-65
2024/01/03 09:43:09;;;;;;;14.63;3.22;;;;;;;11.00;87.52;98898.88;3612656;39;20061;-65
2024/01/03 09:45:36;;;;;;;13.90;3.28;;;;;;;11.01;87.65;98897.06;3611427;39;20432;-65
2024/01/03 09:48:02;;;;;;;11.68;3.42;;;;;;;11.05;87.63;98903.84;3611308;39;20327;-65
2024/01/03 09:50:28;;;;;;;16.08;3.80;;;;;;;11.09;87.17;98913.31;3611042;39;20043;-65
2024/01/03 09:52:55;;;;;;;15.93;3.55;;;;;;;11.14;87.22;98916.41;3613029;39;20098;-65
2024/01/03 09:55:21;;;;;;;14.40;3.50;;;;;;;11.17;85.05;98905.38;3611908;39;20079;-65
2024/01/03 09:57:49;;;;;;;19.73;3.58;;;;;;;11.17;86.38;98907.22;3612197;39;20059;-65
2024/01/03 10:00:16;;;;;;;17.50;3.63;;;;;;;11.20;85.59;98915.84;3612546;39;20050;-65
2024/01/03 10:02:45;;;;;;;17.42;4.18;;;;;;;11.21;86.14;98911.31;3612249;39;21259;-65
2024/01/03 10:05:21;;;;;;;16.13;3.72;;;;;;;11.25;85.22;98908.16;3611375;39;20047;-65
2024/01/03 10:07:47;;;;;;;18.70;3.60;;;;;;;11.29;85.21;98908.72;3612562;39;20046;-65
2024/01/03 10:10:29;;;;;;;16.30;3.75;;;;;;;11.27;85.79;98908.03;3609344;39;20132;-65
2024/01/03 10:12:55;;;;;;;17.17;3.42;;;;;;;11.28;85.06;98913.25;3610003;39;20082;-65
2024/01/03 10:15:21;;;;;;;17.23;3.90;;;;;;;11.31;85.59;98929.09;3612485;39;20415;-65
2024/01/03 10:17:47;;;;;;;19.52;3.65;;;;;;;11.32;84.58;98925.44;3611399;39;20055;-65
2024/01/03 10:20:27;;;;;;;16.23;3.20;;;;;;;11.34;84.90;98917.19;3611522;39;20059;-65
2024/01/03 10:23:09;;;;;;;18.25;3.45;;;;;;;11.39;85.03;98923.84;3610961;39;20091;-65
2024/01/03 10:25:36;;;;;;;18.15;3.67;;;;;;;11.49;84.36;98947.19;3610710;39;20053;-65
2024/01/03 10:28:04;;;;;;;18.48;4.20;;;;;;;11.57;84.47;98926.59;3612841;39;20055;-66
2024/01/03 10:30:30;;;;;;;16.00;3.75;;;;;;;11.72;83.63;98926.97;3611359;39;20051;-65
2024/01/03 10:33:00;;;;;;;15.77;3.05;;;;;;;11.82;82.53;98916.97;3611190;39;20057;-66
2024/01/03 10:35:31;;;;;;;15.52;3.70;;;;;;;11.75;81.90;98899.75;3609560;39;20055;-65
2024/01/03 10:38:01;;;;;;;19.15;4.07;;;;;;;12.07;81.77;98936.16;3613313;39;20047;-65
2024/01/03 10:40:31;;;;;;;17.25;3.53;;;;;;;12.09;79.99;98931.47;3613857;39;20281;-65
2024/01/03 10:42:58;;;;;;;16.23;3.60;;;;;;;11.98;79.54;98910.13;3613932;39;20086;-65
2024/01/03 10:45:25;;;;;;;16.48;3.50;;;;;;;12.12;79.52;98936.56;3614809;39;20051;-65
2024/01/03 10:47:53;;;;;;;13.90;2.92;;;;;;;12.14;79.54;98931.00;3610915;39;20072;-66
2024/01/03 10:50:19;;;;;;;18.13;3.33;;;;;;;12.17;78.80;98936.09;3612480;39;20049;-65
2024/01/03 10:52:46;;;;;;;17.38;4.00;;;;;;;12.10;79.17;98943.94;3614059;39;20378;-65
2024/01/03 10:55:22;;;;;;;21.83;3.72;;;;;;;12.05;78.71;98938.16;3614112;39;20096;-65
2024/01/03 10:58:03;;;;;;;17.08;4.47;;;;;;;12.02;79.26;98941.13;3610802;39;20269;-65
2024/01/03 11:01:00;;;;;;;16.73;3.28;;;;;;;11.99;80.17;98936.09;3612093;39;20124;-64
2024/01/03 11:04:01;;;;;;;17.73;3.88;;;;;;;12.01;79.44;98931.38;3612652;39;20047;-64
2024/01/03 11:06:44;;;;;;;18.63;6.47;;;;;;;11.91;80.04;98914.44;3610447;39;20057;-67
2024/01/03 11:09:09;;;;;;;18.30;4.30;;;;;;;11.94;80.24;98930.28;3613780;39;20051;-65
2024/01/03 11:11:37;;;;;;;13.73;3.28;;;;;;;11.92;80.41;98940.34;3613859;39;20055;-64
2024/01/03 11:14:18;;;;;;;20.05;3.95;;;;;;;11.75;82.00;98934.75;3612365;39;20050;-68
2024/01/03 11:16:45;;;;;;;19.10;3.20;;;;;;;11.60;84.72;98936.22;3613954;39;20373;-67
2024/01/03 11:19:13;;;;;;;11.13;3.30;;;;;;;11.37;87.10;98933.03;3613843;39;20031;-66
2024/01/03 11:21:42;;;;;;;21.67;3.83;;;;;;;11.17;89.08;98926.03;3612942;39;20084;-64
2024/01/03 11:24:27;;;;;;;15.77;3.33;;;;;;;11.08;90.65;98941.19;3614404;39;20047;-64
2024/01/03 11:26:53;;;;;;;19.08;3.70;;;;;;;10.93;92.39;98936.25;3609888;39;20051;-65
2024/01/03 11:29:44;;;;;;;20.38;3.58;;;;;;;10.85;93.33;98949.56;3612026;39;20047;-63